createdAt,value
2018-07-19T00:00:58.804Z,16.40
2018-07-19T00:01:58.990Z,16.40
2018-07-19T00:02:59.163Z,16.43
2018-07-19T00:03:59.351Z,16.36
2018-07-19T00:04:59.523Z,16.36
2018-07-19T00:05:59.701Z,16.34
2018-07-19T00:06:59.919Z,16.34
2018-07-19T00:08:00.090Z,16.29
2018-07-19T00:09:00.232Z,16.26
2018-07-19T00:10:00.404Z,16.33
2018-07-19T00:11:00.587Z,16.25
2018-07-19T00:12:00.775Z,16.13
2018-07-19T00:13:00.958Z,16.14
2018-07-19T00:14:01.129Z,16.16
2018-07-19T00:15:01.334Z,16.09
2018-07-19T00:16:01.529Z,16.13
2018-07-19T00:17:01.725Z,16.14
2018-07-19T00:18:01.909Z,16.08
2018-07-19T00:19:02.110Z,16.03
2018-07-19T00:20:02.289Z,16.08
2018-07-19T00:21:02.476Z,15.99
2018-07-19T00:22:02.651Z,15.88
2018-07-19T00:23:02.828Z,15.95
2018-07-19T00:24:03.040Z,15.95
2018-07-19T00:25:03.208Z,15.99
2018-07-19T00:26:03.403Z,15.81
2018-07-19T00:27:03.638Z,15.78
2018-07-19T00:28:03.824Z,15.80
2018-07-19T00:29:04.035Z,15.78
2018-07-19T00:30:04.229Z,15.77
2018-07-19T00:31:04.414Z,15.65
2018-07-19T00:32:05.067Z,15.73
2018-07-19T00:33:04.833Z,15.62
2018-07-19T00:34:05.000Z,15.59
2018-07-19T00:35:05.167Z,15.56
2018-07-19T00:36:05.349Z,15.56
2018-07-19T00:37:05.528Z,15.60
2018-07-19T00:38:05.709Z,15.59
2018-07-19T00:39:05.901Z,15.54
2018-07-19T00:40:06.088Z,15.56
2018-07-19T00:41:06.270Z,15.60
2018-07-19T00:42:06.443Z,15.51
2018-07-19T00:43:06.629Z,15.48
2018-07-19T00:44:06.801Z,15.48
2018-07-19T00:45:06.993Z,15.50
2018-07-19T00:46:07.177Z,15.50
2018-07-19T00:47:07.347Z,15.38
2018-07-19T00:48:07.551Z,15.38
2018-07-19T00:49:07.719Z,15.32
2018-07-19T00:50:07.916Z,15.41
2018-07-19T00:51:08.109Z,15.36
2018-07-19T00:52:08.278Z,15.38
2018-07-19T00:53:08.477Z,15.33
2018-07-19T00:54:08.651Z,15.32
2018-07-19T00:55:08.834Z,15.35
2018-07-19T00:56:09.039Z,15.29
2018-07-19T00:57:09.190Z,15.33
2018-07-19T00:58:09.378Z,15.32
2018-07-19T00:59:09.580Z,15.25
2018-07-19T01:00:09.781Z,15.17
2018-07-19T01:01:09.970Z,15.14
2018-07-19T01:02:10.147Z,15.11
2018-07-19T01:03:10.345Z,15.10
2018-07-19T01:04:10.582Z,15.19
2018-07-19T01:05:10.757Z,15.12
2018-07-19T01:06:10.953Z,15.17
2018-07-19T01:07:11.125Z,15.22
2018-07-19T01:08:11.334Z,15.23
2018-07-19T01:09:11.522Z,15.12
2018-07-19T01:10:11.712Z,15.12
2018-07-19T01:11:11.870Z,15.12
2018-07-19T01:12:12.045Z,15.11
2018-07-19T01:13:12.218Z,15.03
2018-07-19T01:14:12.398Z,14.93
2018-07-19T01:15:12.566Z,15.15
2018-07-19T01:16:12.793Z,14.97
2018-07-19T01:17:12.960Z,15.05
2018-07-19T01:18:13.144Z,15.07
2018-07-19T01:19:13.317Z,15.17
2018-07-19T01:20:13.490Z,15.05
2018-07-19T01:21:13.691Z,15.14
2018-07-19T01:22:13.865Z,15.10
2018-07-19T01:23:14.039Z,15.03
2018-07-19T01:24:14.238Z,15.03
2018-07-19T01:25:14.444Z,14.97
2018-07-19T01:26:14.626Z,14.92
2018-07-19T01:27:14.803Z,14.79
2018-07-19T01:28:15.002Z,14.83
2018-07-19T01:29:15.199Z,14.82
2018-07-19T01:30:15.392Z,14.86
2018-07-19T01:31:15.571Z,14.85
2018-07-19T01:32:15.749Z,14.79
2018-07-19T01:33:15.938Z,14.82
2018-07-19T01:34:16.112Z,14.87
2018-07-19T01:35:16.280Z,14.83
2018-07-19T01:36:16.468Z,14.83
2018-07-19T01:37:16.676Z,14.83
2018-07-19T01:38:16.862Z,14.79
2018-07-19T01:39:17.063Z,14.71
2018-07-19T01:40:17.263Z,14.78
2018-07-19T01:41:17.420Z,14.71
2018-07-19T01:42:17.595Z,14.69
2018-07-19T01:43:17.777Z,14.67
2018-07-19T01:44:17.952Z,14.70
2018-07-19T01:45:18.133Z,14.71
2018-07-19T01:46:18.326Z,14.64
2018-07-19T01:47:18.522Z,14.52
2018-07-19T01:48:18.749Z,14.46
2018-07-19T01:49:18.943Z,14.48
2018-07-19T01:50:19.155Z,14.53
2018-07-19T01:51:19.337Z,14.45
2018-07-19T01:52:19.511Z,14.58
2018-07-19T01:53:19.717Z,14.56
2018-07-19T01:54:19.871Z,14.61
2018-07-19T01:55:20.062Z,14.59
2018-07-19T01:56:20.292Z,14.53
2018-07-19T01:57:20.522Z,14.49
2018-07-19T01:58:20.709Z,14.45
2018-07-19T01:59:20.889Z,14.51
2018-07-19T02:00:21.093Z,14.36
2018-07-19T02:01:21.283Z,14.41
2018-07-19T02:02:21.462Z,14.38
2018-07-19T02:03:21.644Z,14.40
2018-07-19T02:04:21.816Z,14.34
2018-07-19T02:05:21.987Z,14.33
2018-07-19T02:06:22.156Z,14.28
2018-07-19T02:07:22.329Z,14.23
2018-07-19T02:08:22.532Z,14.26
2018-07-19T02:09:22.717Z,14.22
2018-07-19T02:10:22.911Z,14.27
2018-07-19T02:11:23.085Z,14.27
2018-07-19T02:12:23.281Z,14.23
2018-07-19T02:13:23.463Z,14.16
2018-07-19T02:14:23.639Z,14.16
2018-07-19T02:15:23.816Z,14.16
2018-07-19T02:16:24.005Z,14.13
2018-07-19T02:17:24.173Z,14.21
2018-07-19T02:18:24.344Z,14.09
2018-07-19T02:19:24.531Z,14.09
2018-07-19T02:20:24.717Z,13.94
2018-07-19T02:21:24.892Z,14.03
2018-07-19T02:22:25.079Z,13.93
2018-07-19T02:23:25.267Z,13.96
2018-07-19T02:24:25.433Z,13.94
2018-07-19T02:25:25.618Z,13.93
2018-07-19T02:26:25.811Z,13.90
2018-07-19T02:27:25.991Z,13.88
2018-07-19T02:28:26.160Z,13.90
2018-07-19T02:29:26.350Z,13.86
2018-07-19T02:30:26.512Z,13.73
2018-07-19T02:31:26.680Z,13.90
2018-07-19T02:32:26.855Z,13.88
2018-07-19T02:33:27.038Z,13.79
2018-07-19T02:34:27.213Z,13.78
2018-07-19T02:35:27.401Z,13.83
2018-07-19T02:36:27.584Z,13.67
2018-07-19T02:37:27.748Z,13.75
2018-07-19T02:38:27.960Z,13.68
2018-07-19T02:39:28.138Z,13.75
2018-07-19T02:40:28.324Z,13.67
2018-07-19T02:41:28.511Z,13.73
2018-07-19T02:42:28.693Z,13.71
2018-07-19T02:43:28.871Z,13.67
2018-07-19T02:44:29.065Z,13.67
2018-07-19T02:45:29.229Z,13.65
2018-07-19T02:46:29.441Z,13.73
2018-07-19T02:47:29.635Z,13.64
2018-07-19T02:48:29.801Z,13.58
2018-07-19T02:49:29.998Z,13.65
2018-07-19T02:50:30.178Z,13.67
2018-07-19T02:51:30.362Z,13.63
2018-07-19T02:52:30.539Z,13.61
2018-07-19T02:53:30.711Z,13.57
2018-07-19T02:54:30.885Z,13.60
2018-07-19T02:55:31.071Z,13.58
2018-07-19T02:56:31.244Z,13.55
2018-07-19T02:57:31.413Z,13.53
2018-07-19T02:58:31.590Z,13.53
2018-07-19T02:59:31.761Z,13.45
2018-07-19T03:00:31.967Z,13.51
2018-07-19T03:01:32.165Z,13.60
2018-07-19T03:02:32.341Z,13.54
2018-07-19T03:03:32.519Z,13.49
2018-07-19T03:04:32.702Z,13.49
2018-07-19T03:05:32.900Z,13.46
2018-07-19T03:06:33.155Z,13.46
2018-07-19T03:07:33.288Z,13.47
2018-07-19T03:08:33.515Z,13.51
2018-07-19T03:09:33.703Z,13.46
2018-07-19T03:10:33.890Z,13.39
2018-07-19T03:11:34.069Z,13.43
2018-07-19T03:12:34.250Z,13.36
2018-07-19T03:13:34.435Z,13.43
2018-07-19T03:14:34.616Z,13.35
2018-07-19T03:15:34.785Z,13.40
2018-07-19T03:16:34.972Z,13.39
2018-07-19T03:17:35.157Z,13.43
2018-07-19T03:18:35.342Z,13.39
2018-07-19T03:19:35.558Z,13.38
2018-07-19T03:20:35.789Z,13.32
2018-07-19T03:21:35.964Z,13.36
2018-07-19T03:22:36.137Z,13.21
2018-07-19T03:23:36.372Z,13.26
2018-07-19T03:24:36.545Z,13.32
2018-07-19T03:25:36.716Z,13.26
2018-07-19T03:26:36.913Z,13.23
2018-07-19T03:27:37.130Z,13.29
2018-07-19T03:28:37.324Z,13.26
2018-07-19T03:29:37.507Z,13.17
2018-07-19T03:30:37.701Z,13.26
2018-07-19T03:31:37.908Z,13.09
2018-07-19T03:32:38.034Z,13.16
2018-07-19T03:33:38.236Z,13.13
2018-07-19T03:34:38.409Z,13.17
2018-07-19T03:35:38.579Z,13.16
2018-07-19T03:36:38.764Z,13.19
2018-07-19T03:37:38.940Z,13.08
2018-07-19T03:38:39.169Z,13.04
2018-07-19T03:39:39.357Z,13.09
2018-07-19T03:40:39.552Z,13.02
2018-07-19T03:41:39.747Z,13.08
2018-07-19T03:42:39.904Z,13.08
2018-07-19T03:43:40.080Z,13.09
2018-07-19T03:44:40.265Z,13.02
2018-07-19T03:45:40.479Z,13.06
2018-07-19T03:46:40.650Z,13.05
2018-07-19T03:47:40.816Z,13.09
2018-07-19T03:48:41.030Z,13.08
2018-07-19T03:49:41.208Z,13.08
2018-07-19T03:50:41.394Z,13.06
2018-07-19T03:51:41.552Z,13.19
2018-07-19T03:52:41.737Z,13.06
2018-07-19T03:53:41.914Z,13.16
2018-07-19T03:54:42.106Z,13.16
2018-07-19T03:55:42.319Z,13.21
2018-07-19T03:56:42.490Z,13.19
2018-07-19T03:57:42.670Z,13.26
2018-07-19T03:58:42.848Z,13.20
2018-07-19T03:59:43.031Z,13.24
2018-07-19T04:00:43.261Z,13.20
2018-07-19T04:01:43.441Z,13.20
2018-07-19T04:02:43.609Z,13.29
2018-07-19T04:03:43.854Z,13.23
2018-07-19T04:04:44.037Z,13.21
2018-07-19T04:05:44.211Z,13.35
2018-07-19T04:06:44.421Z,13.29
2018-07-19T04:07:44.592Z,13.32
2018-07-19T04:08:44.794Z,13.30
2018-07-19T04:09:44.965Z,13.36
2018-07-19T04:10:45.142Z,13.36
2018-07-19T04:11:45.312Z,13.40
2018-07-19T04:12:45.503Z,13.43
2018-07-19T04:13:45.703Z,13.42
2018-07-19T04:14:45.900Z,13.36
2018-07-19T04:15:46.112Z,13.46
2018-07-19T04:16:46.296Z,13.43
2018-07-19T04:17:46.489Z,13.49
2018-07-19T04:18:46.680Z,13.47
2018-07-19T04:19:46.883Z,13.58
2018-07-19T04:20:47.067Z,13.54
2018-07-19T04:21:47.235Z,13.61
2018-07-19T04:22:47.405Z,13.68
2018-07-19T04:23:47.585Z,13.61
2018-07-19T04:24:47.757Z,13.54
2018-07-19T04:25:47.957Z,13.58
2018-07-19T04:26:48.126Z,13.57
2018-07-19T04:27:48.305Z,13.64
2018-07-19T04:28:48.482Z,13.72
2018-07-19T04:29:48.673Z,13.67
2018-07-19T04:30:48.838Z,13.65
2018-07-19T04:31:49.017Z,13.67
2018-07-19T04:32:49.186Z,13.72
2018-07-19T04:33:49.386Z,13.78
2018-07-19T04:34:49.575Z,13.71
2018-07-19T04:35:49.755Z,13.75
2018-07-19T04:36:49.920Z,13.75
2018-07-19T04:37:50.086Z,13.78
2018-07-19T04:38:51.110Z,13.78
2018-07-19T04:39:50.485Z,13.75
2018-07-19T04:40:50.655Z,13.75
2018-07-19T04:41:50.839Z,13.83
2018-07-19T04:42:51.026Z,13.82
2018-07-19T04:43:51.218Z,13.76
2018-07-19T04:44:51.409Z,13.94
2018-07-19T04:45:51.583Z,13.83
2018-07-19T04:46:51.783Z,13.88
2018-07-19T04:47:51.955Z,13.88
2018-07-19T04:48:52.167Z,13.96
2018-07-19T04:49:52.374Z,13.98
2018-07-19T04:50:52.560Z,14.08
2018-07-19T04:51:52.736Z,14.16
2018-07-19T04:52:52.910Z,14.34
2018-07-19T04:53:53.134Z,14.64
2018-07-19T04:54:53.328Z,15.01
2018-07-19T04:55:53.508Z,15.65
2018-07-19T04:56:53.695Z,16.14
2018-07-19T04:57:53.878Z,16.54
2018-07-19T04:58:54.058Z,16.92
2018-07-19T04:59:54.233Z,17.47
2018-07-19T05:00:54.404Z,17.79
2018-07-19T05:01:54.789Z,17.91
2018-07-19T05:02:54.795Z,18.31
2018-07-19T05:03:54.966Z,18.26
2018-07-19T05:04:55.209Z,18.58
2018-07-19T05:05:55.395Z,18.97
2018-07-19T05:06:55.576Z,18.98
2018-07-19T05:07:55.767Z,18.91
2018-07-19T05:08:55.955Z,18.68
2018-07-19T05:09:56.136Z,18.63
2018-07-19T05:10:56.316Z,19.09
2018-07-19T05:11:56.487Z,19.54
2018-07-19T05:12:56.700Z,19.70
2018-07-19T05:13:56.915Z,19.68
2018-07-19T05:14:57.117Z,19.84
2018-07-19T05:15:57.310Z,20.02
2018-07-19T05:16:57.501Z,20.30
2018-07-19T05:17:57.671Z,20.39
2018-07-19T05:18:57.868Z,20.18
2018-07-19T05:19:58.057Z,20.30
2018-07-19T05:20:58.237Z,20.68
2018-07-19T05:21:58.416Z,20.73
2018-07-19T05:22:58.607Z,20.71
2018-07-19T05:23:58.824Z,20.55
2018-07-19T05:24:59.013Z,20.32
2018-07-19T05:25:59.193Z,20.29
2018-07-19T05:26:59.416Z,19.77
2018-07-19T05:27:59.603Z,19.32
2018-07-19T05:28:59.785Z,19.34
2018-07-19T05:29:59.963Z,19.41
2018-07-19T05:31:00.166Z,19.22
2018-07-19T05:32:00.349Z,19.24
2018-07-19T05:33:00.559Z,19.45
2018-07-19T05:34:00.752Z,19.68
2018-07-19T05:35:00.948Z,19.81
2018-07-19T05:36:01.124Z,20.14
2018-07-19T05:37:01.301Z,20.44
2018-07-19T05:38:01.519Z,20.49
2018-07-19T05:39:01.701Z,20.58
2018-07-19T05:40:01.898Z,20.85
2018-07-19T05:41:02.104Z,21.19
2018-07-19T05:42:02.345Z,21.32
2018-07-19T05:43:02.466Z,20.93
2018-07-19T05:44:02.660Z,20.80
2018-07-19T05:45:02.845Z,21.03
2018-07-19T05:46:03.020Z,21.34
2018-07-19T05:47:03.226Z,21.22
2018-07-19T05:48:03.438Z,21.14
2018-07-19T05:49:03.621Z,21.10
2018-07-19T05:50:03.814Z,21.13
2018-07-19T05:51:04.009Z,21.30
2018-07-19T05:52:04.202Z,21.40
2018-07-19T05:53:04.402Z,21.58
2018-07-19T05:54:04.595Z,21.85
2018-07-19T05:55:04.818Z,22.13
2018-07-19T05:56:05.036Z,22.19
2018-07-19T05:57:05.213Z,22.01
2018-07-19T05:58:05.431Z,21.93
2018-07-19T05:59:05.628Z,21.97
2018-07-19T06:00:05.825Z,22.00
2018-07-19T06:01:06.018Z,21.91
2018-07-19T06:02:06.220Z,21.97
2018-07-19T06:03:06.414Z,21.78
2018-07-19T06:04:06.611Z,21.59
2018-07-19T06:05:06.809Z,21.59
2018-07-19T06:06:07.017Z,21.80
2018-07-19T06:07:07.243Z,22.06
2018-07-19T06:08:07.426Z,22.34
2018-07-19T06:09:07.617Z,22.73
2018-07-19T06:10:07.816Z,22.86
2018-07-19T06:11:08.011Z,22.37
2018-07-19T06:12:08.202Z,22.28
2018-07-19T06:13:08.414Z,22.49
2018-07-19T06:14:08.588Z,22.51
2018-07-19T06:15:08.780Z,22.81
2018-07-19T06:16:08.977Z,22.95
2018-07-19T06:17:09.183Z,22.92
2018-07-19T06:18:09.380Z,23.23
2018-07-19T06:19:09.571Z,23.49
2018-07-19T06:20:09.775Z,23.26
2018-07-19T06:21:09.983Z,23.52
2018-07-19T06:22:10.142Z,23.31
2018-07-19T06:23:10.349Z,23.03
2018-07-19T06:24:10.542Z,22.34
2018-07-19T06:25:10.738Z,21.77
2018-07-19T06:26:10.930Z,21.56
2018-07-19T06:27:11.125Z,21.23
2018-07-19T06:28:11.326Z,21.00
2018-07-19T06:29:11.529Z,21.10
2018-07-19T06:30:11.719Z,21.67
2018-07-19T06:31:11.905Z,22.37
2018-07-19T06:32:12.095Z,22.99
2018-07-19T06:33:12.301Z,23.39
2018-07-19T06:34:12.505Z,23.69
2018-07-19T06:35:12.692Z,23.81
2018-07-19T06:36:12.903Z,23.81
2018-07-19T06:37:13.112Z,23.84
2018-07-19T06:38:13.289Z,24.25
2018-07-19T06:39:13.486Z,24.40
2018-07-19T06:40:13.683Z,24.63
2018-07-19T06:41:13.931Z,24.66
2018-07-19T06:42:14.072Z,24.68
2018-07-19T06:43:14.275Z,24.65
2018-07-19T06:44:14.478Z,24.15
2018-07-19T06:45:14.700Z,24.25
2018-07-19T06:46:14.895Z,24.10
2018-07-19T06:47:15.110Z,24.29
2018-07-19T06:48:15.280Z,24.21
2018-07-19T06:49:15.485Z,24.43
2018-07-19T06:50:15.683Z,24.16
2018-07-19T06:51:15.881Z,24.00
2018-07-19T06:52:16.084Z,24.38
2018-07-19T06:53:16.275Z,23.74
2018-07-19T06:54:16.467Z,23.73
2018-07-19T06:55:16.677Z,24.01
2018-07-19T06:56:16.895Z,24.33
2018-07-19T06:57:17.150Z,24.41
2018-07-19T06:58:17.304Z,24.41
2018-07-19T06:59:17.495Z,24.47
2018-07-19T07:00:17.689Z,24.21
2018-07-19T07:01:17.877Z,24.41
2018-07-19T07:02:18.093Z,24.62
2018-07-19T07:03:18.301Z,24.62
2018-07-19T07:04:18.495Z,24.07
2018-07-19T07:05:18.659Z,24.07
2018-07-19T07:06:18.848Z,24.25
2018-07-19T07:07:19.048Z,24.40
2018-07-19T07:08:19.238Z,24.41
2018-07-19T07:09:19.442Z,24.29
2018-07-19T07:10:19.640Z,23.88
2018-07-19T07:11:19.840Z,23.51
2018-07-19T07:12:20.038Z,23.74
2018-07-19T07:13:20.240Z,23.88
2018-07-19T07:14:20.437Z,24.19
2018-07-19T07:15:20.634Z,24.21
2018-07-19T07:16:20.836Z,24.43
2018-07-19T07:17:21.031Z,24.70
2018-07-19T07:18:21.225Z,24.75
2018-07-19T07:19:21.423Z,24.66
2018-07-19T07:20:21.620Z,24.89
2018-07-19T07:21:21.861Z,25.00
2018-07-19T07:22:22.027Z,24.86
2018-07-19T07:23:22.227Z,25.04
2018-07-19T07:24:22.408Z,25.22
2018-07-19T07:25:22.617Z,25.00
2018-07-19T07:26:22.834Z,25.08
2018-07-19T07:27:23.037Z,24.85
2018-07-19T07:28:23.288Z,24.93
2018-07-19T07:29:23.410Z,25.09
2018-07-19T07:30:23.613Z,25.03
2018-07-19T07:31:23.811Z,25.48
2018-07-19T07:32:24.009Z,25.96
2018-07-19T07:33:24.212Z,26.00
2018-07-19T07:34:24.409Z,26.30
2018-07-19T07:35:24.611Z,26.36
2018-07-19T07:37:25.049Z,26.04
2018-07-19T07:38:25.247Z,25.90
2018-07-19T07:39:25.455Z,25.49
2018-07-19T07:40:25.647Z,25.64
2018-07-19T07:41:25.840Z,25.67
2018-07-19T07:42:26.021Z,25.18
2018-07-19T07:43:26.210Z,25.59
2018-07-19T07:44:26.400Z,25.83
2018-07-19T07:45:26.609Z,25.86
2018-07-19T07:46:26.807Z,26.11
2018-07-19T07:47:27.014Z,26.21
2018-07-19T07:48:30.180Z,25.92
2018-07-19T07:49:27.421Z,25.59
2018-07-19T07:50:27.632Z,25.28
2018-07-19T07:51:27.818Z,25.37
2018-07-19T07:52:28.018Z,25.51
2018-07-19T07:53:34.348Z,25.53
2018-07-19T07:56:22.926Z,25.67
2018-07-19T07:57:23.106Z,25.96
2018-07-19T07:58:23.805Z,25.98
2018-07-19T07:59:23.500Z,25.73
2018-07-19T08:00:23.653Z,25.64
2018-07-19T08:01:23.780Z,25.61
2018-07-19T08:02:23.962Z,25.43
2018-07-19T08:03:24.122Z,25.75
2018-07-19T08:04:24.292Z,25.81
2018-07-19T08:05:24.531Z,24.74
2018-07-19T08:06:24.722Z,24.66
2018-07-19T08:07:24.903Z,25.12
2018-07-19T08:08:25.083Z,25.52
2018-07-19T08:09:25.246Z,25.58
2018-07-19T08:10:25.421Z,25.83
2018-07-19T08:11:25.588Z,25.78
2018-07-19T08:12:25.759Z,26.00
2018-07-19T08:13:25.935Z,26.30
2018-07-19T08:14:26.106Z,26.60
2018-07-19T08:15:26.274Z,26.68
2018-07-19T08:16:26.449Z,26.57
2018-07-19T08:17:26.621Z,25.96
2018-07-19T08:18:26.796Z,25.77
2018-07-19T08:19:26.969Z,25.86
2018-07-19T08:20:27.151Z,26.01
2018-07-19T08:21:27.360Z,26.01
2018-07-19T08:22:27.537Z,26.01
2018-07-19T08:23:27.715Z,25.75
2018-07-19T08:24:27.891Z,26.00
2018-07-19T08:25:28.067Z,26.15
2018-07-19T08:26:28.243Z,25.98
2018-07-19T08:27:28.413Z,25.88
2018-07-19T08:28:28.601Z,26.19
2018-07-19T08:29:28.767Z,26.38
2018-07-19T08:30:28.923Z,26.21
2018-07-19T08:31:29.114Z,25.96
2018-07-19T08:32:29.291Z,26.04
2018-07-19T08:33:29.458Z,26.04
2018-07-19T08:34:29.625Z,26.11
2018-07-19T08:35:29.797Z,26.43
2018-07-19T08:36:29.974Z,26.30
2018-07-19T08:37:30.146Z,25.93
2018-07-19T08:38:30.315Z,25.85
2018-07-19T08:39:30.498Z,26.00
2018-07-19T08:40:30.667Z,25.90
2018-07-19T08:41:30.834Z,26.01
2018-07-19T08:42:30.996Z,26.03
2018-07-19T08:43:31.169Z,26.10
2018-07-19T08:44:31.343Z,26.04
2018-07-19T08:45:31.515Z,25.63
2018-07-19T08:46:31.688Z,25.92
2018-07-19T08:47:31.864Z,25.83
2018-07-19T08:48:32.040Z,25.89
2018-07-19T08:49:32.210Z,25.96
2018-07-19T08:50:32.388Z,25.95
2018-07-19T08:51:32.603Z,26.30
2018-07-19T08:52:32.845Z,26.52
2018-07-19T08:53:32.926Z,26.27
2018-07-19T08:54:33.099Z,26.12
2018-07-19T08:55:33.269Z,26.10
2018-07-19T08:56:33.462Z,26.11
2018-07-19T08:57:33.616Z,26.08
2018-07-19T08:58:33.783Z,26.03
2018-07-19T08:59:33.942Z,26.26
2018-07-19T09:00:34.112Z,26.61
2018-07-19T09:01:34.280Z,26.76
2018-07-19T09:02:34.452Z,26.76
2018-07-19T09:03:34.628Z,26.97
2018-07-19T09:04:34.798Z,26.85
2018-07-19T09:05:34.993Z,26.28
2018-07-19T09:06:35.165Z,25.68
2018-07-19T09:07:35.331Z,25.27
2018-07-19T09:08:35.536Z,25.41
2018-07-19T09:09:35.679Z,25.66
2018-07-19T09:10:35.843Z,25.74
2018-07-19T09:11:36.031Z,25.92
2018-07-19T09:12:36.212Z,26.12
2018-07-19T09:13:36.378Z,26.42
2018-07-19T09:14:36.535Z,26.56
2018-07-19T09:15:36.714Z,26.71
2018-07-19T09:16:36.883Z,26.95
2018-07-19T09:17:37.065Z,26.83
2018-07-19T09:18:37.233Z,26.57
2018-07-19T09:19:37.448Z,26.24
2018-07-19T09:20:37.573Z,26.23
2018-07-19T09:21:37.736Z,25.93
2018-07-19T09:22:37.906Z,25.98
2018-07-19T09:23:38.076Z,26.16
2018-07-19T09:24:38.248Z,26.20
2018-07-19T09:25:38.415Z,26.08
2018-07-19T09:26:38.616Z,25.82
2018-07-19T09:27:38.752Z,25.36
2018-07-19T09:28:39.850Z,25.18
2018-07-19T09:29:39.137Z,25.59
2018-07-19T09:30:39.327Z,25.88
2018-07-19T09:31:39.581Z,25.77
2018-07-19T09:32:40.464Z,25.83
2018-07-19T09:33:40.952Z,26.20
2018-07-19T09:34:41.971Z,26.05
2018-07-19T09:35:40.405Z,26.00
2018-07-19T09:36:40.666Z,26.04
2018-07-19T09:37:41.350Z,26.08
2018-07-19T09:38:40.930Z,26.23
2018-07-19T09:39:41.106Z,26.43
2018-07-19T09:40:41.247Z,26.71
2018-07-19T09:41:41.407Z,26.68
2018-07-19T09:42:41.564Z,26.65
2018-07-19T09:43:41.739Z,26.60
2018-07-19T09:44:41.912Z,26.70
2018-07-19T09:45:42.070Z,26.79
2018-07-19T09:46:42.225Z,26.45
2018-07-19T09:47:42.397Z,26.04
2018-07-19T09:48:42.570Z,25.81
2018-07-19T09:49:42.724Z,25.81
2018-07-19T09:50:42.893Z,25.77
2018-07-19T09:51:43.054Z,25.92
2018-07-19T09:52:43.219Z,26.11
2018-07-19T09:53:43.385Z,25.89
2018-07-19T09:54:43.587Z,25.92
2018-07-19T09:55:43.692Z,25.98
2018-07-19T09:56:43.850Z,26.42
2018-07-19T09:57:44.011Z,26.34
2018-07-19T09:58:44.197Z,26.53
2018-07-19T09:59:44.406Z,26.68
2018-07-19T10:00:44.561Z,26.70
2018-07-19T10:01:44.734Z,26.64
2018-07-19T10:02:44.917Z,26.86
2018-07-19T10:03:45.051Z,26.90
2018-07-19T10:04:45.218Z,27.00
2018-07-19T10:05:45.409Z,26.94
2018-07-19T10:06:45.534Z,26.71
2018-07-19T10:07:45.729Z,26.49
2018-07-19T10:08:45.862Z,26.38
2018-07-19T10:09:46.038Z,26.56
2018-07-19T10:10:46.201Z,26.68
2018-07-19T10:11:46.383Z,26.71
2018-07-19T10:12:46.535Z,26.60
2018-07-19T10:13:46.733Z,26.38
2018-07-19T10:14:46.879Z,26.41
2018-07-19T10:15:47.042Z,26.15
2018-07-19T10:16:47.196Z,26.27
2018-07-19T10:17:47.374Z,26.31
2018-07-19T10:18:47.547Z,26.49
2018-07-19T10:19:47.714Z,26.45
2018-07-19T10:20:47.890Z,26.60
2018-07-19T10:21:48.055Z,26.71
2018-07-19T10:22:48.269Z,26.73
2018-07-19T10:23:48.442Z,26.89
2018-07-19T10:24:48.604Z,26.82
2018-07-19T10:25:48.808Z,26.93
2018-07-19T10:26:49.006Z,26.98
2018-07-19T10:27:49.163Z,27.08
2018-07-19T10:28:49.328Z,27.19
2018-07-19T10:29:49.518Z,27.41
2018-07-19T10:30:49.667Z,27.16
2018-07-19T10:31:49.931Z,26.70
2018-07-19T10:32:50.082Z,26.80
2018-07-19T10:33:50.231Z,26.82
2018-07-19T10:34:50.410Z,26.85
2018-07-19T10:35:50.595Z,26.93
2018-07-19T10:36:50.774Z,27.13
2018-07-19T10:37:50.932Z,27.25
2018-07-19T10:38:51.107Z,27.32
2018-07-19T10:39:51.262Z,27.23
2018-07-19T10:40:51.423Z,27.22
2018-07-19T10:41:51.581Z,26.95
2018-07-19T10:42:51.749Z,26.82
2018-07-19T10:43:51.914Z,26.82
2018-07-19T10:44:52.082Z,26.98
2018-07-19T10:45:52.241Z,27.01
2018-07-19T10:46:52.396Z,26.83
2018-07-19T10:47:52.630Z,26.97
2018-07-19T10:48:52.793Z,27.13
2018-07-19T10:49:52.967Z,27.41
2018-07-19T10:50:53.124Z,27.41
2018-07-19T10:51:53.348Z,27.38
2018-07-19T10:52:53.465Z,27.37
2018-07-19T10:53:53.641Z,27.54
2018-07-19T10:54:54.021Z,27.34
2018-07-19T10:55:54.106Z,27.38
2018-07-19T10:56:54.162Z,27.64
2018-07-19T10:57:54.369Z,27.78
2018-07-19T10:58:54.531Z,28.06
2018-07-19T10:59:54.702Z,27.83
2018-07-19T11:00:54.879Z,27.88
2018-07-19T11:01:55.053Z,27.87
2018-07-19T11:02:55.337Z,27.85
2018-07-19T11:03:55.391Z,27.88
2018-07-19T11:04:55.573Z,27.91
2018-07-19T11:05:55.737Z,27.87
2018-07-19T11:06:55.911Z,27.63
2018-07-19T11:07:56.079Z,27.64
2018-07-19T11:08:56.236Z,27.53
2018-07-19T11:09:56.505Z,27.27
2018-07-19T11:10:56.566Z,26.98
2018-07-19T11:11:56.796Z,26.83
2018-07-19T11:12:56.963Z,26.51
2018-07-19T11:13:57.135Z,26.23
2018-07-19T11:14:57.351Z,26.26
2018-07-19T11:15:57.524Z,26.26
2018-07-19T11:16:57.689Z,26.39
2018-07-19T11:17:57.858Z,26.43
2018-07-19T11:18:58.027Z,26.53
2018-07-19T11:19:58.195Z,26.63
2018-07-19T11:20:58.366Z,26.70
2018-07-19T11:21:58.524Z,26.75
2018-07-19T11:22:58.689Z,26.71
2018-07-19T11:23:58.838Z,26.70
2018-07-19T11:24:59.015Z,26.75
2018-07-19T11:25:59.211Z,26.68
2018-07-19T11:26:59.327Z,26.80
2018-07-19T11:27:59.611Z,26.94
2018-07-19T11:28:59.720Z,27.12
2018-07-19T11:29:59.948Z,27.26
2018-07-19T11:31:00.135Z,27.38
2018-07-19T11:32:00.313Z,27.27
2018-07-19T11:33:00.471Z,27.40
2018-07-19T11:34:00.581Z,27.41
2018-07-19T11:35:00.857Z,27.34
2018-07-19T11:36:01.025Z,27.31
2018-07-19T11:37:01.189Z,27.41
2018-07-19T11:38:01.357Z,27.20
2018-07-19T11:39:01.546Z,27.16
2018-07-19T11:40:01.736Z,26.90
2018-07-19T11:41:01.989Z,26.53
2018-07-19T11:42:02.165Z,26.46
2018-07-19T11:43:02.311Z,26.52
2018-07-19T11:44:02.484Z,26.76
2018-07-19T11:45:02.664Z,26.70
2018-07-19T11:46:02.834Z,26.78
2018-07-19T11:47:03.001Z,26.85
2018-07-19T11:48:03.897Z,26.76
2018-07-19T11:49:03.463Z,26.80
2018-07-19T11:50:03.633Z,27.07
2018-07-19T11:51:03.793Z,27.12
2018-07-19T11:52:04.018Z,26.80
2018-07-19T11:53:04.177Z,26.78
2018-07-19T11:54:04.341Z,26.75
2018-07-19T11:55:04.500Z,26.68
2018-07-19T11:56:04.681Z,26.70
2018-07-19T11:57:04.842Z,27.07
2018-07-19T11:58:04.993Z,26.90
2018-07-19T11:59:05.156Z,26.93
2018-07-19T12:00:05.324Z,27.12
2018-07-19T12:01:05.491Z,26.94
2018-07-19T12:02:05.643Z,26.90
2018-07-19T12:03:05.806Z,26.97
2018-07-19T12:04:05.963Z,26.98
2018-07-19T12:05:06.142Z,26.78
2018-07-19T12:06:06.304Z,26.90
2018-07-19T12:07:06.568Z,26.83
2018-07-19T12:08:06.729Z,26.95
2018-07-19T12:09:06.889Z,27.01
2018-07-19T12:10:07.052Z,26.94
2018-07-19T12:11:07.203Z,27.17
2018-07-19T12:12:07.365Z,27.22
2018-07-19T12:13:07.545Z,27.25
2018-07-19T12:14:07.714Z,27.08
2018-07-19T12:15:07.873Z,27.30
2018-07-19T12:16:08.044Z,27.16
2018-07-19T12:17:08.212Z,27.13
2018-07-19T12:18:08.377Z,27.13
2018-07-19T12:19:08.540Z,27.19
2018-07-19T12:20:08.718Z,27.16
2018-07-19T12:21:08.868Z,27.25
2018-07-19T12:22:09.055Z,27.34
2018-07-19T12:23:09.332Z,27.38
2018-07-19T12:24:09.352Z,27.32
2018-07-19T12:25:09.527Z,27.34
2018-07-19T12:26:09.690Z,27.34
2018-07-19T12:27:09.847Z,27.27
2018-07-19T12:28:10.009Z,27.16
2018-07-19T12:29:10.182Z,27.03
2018-07-19T12:30:10.327Z,27.10
2018-07-19T12:31:10.516Z,27.08
2018-07-19T12:32:10.661Z,27.10
2018-07-19T12:33:10.816Z,27.20
2018-07-19T12:34:10.969Z,27.05
2018-07-19T12:35:11.183Z,27.08
2018-07-19T12:36:11.345Z,27.16
2018-07-19T12:37:11.520Z,27.22
2018-07-19T12:38:11.673Z,27.42
2018-07-19T12:39:11.858Z,27.58
2018-07-19T12:40:12.034Z,27.52
2018-07-19T12:41:12.196Z,27.69
2018-07-19T12:42:12.368Z,27.73
2018-07-19T12:43:12.531Z,27.87
2018-07-19T12:44:12.686Z,27.66
2018-07-19T12:45:12.853Z,27.44
2018-07-19T12:46:13.012Z,27.63
2018-07-19T12:47:13.164Z,27.73
2018-07-19T12:48:13.320Z,27.61
2018-07-19T12:49:13.487Z,27.60
2018-07-19T12:50:13.657Z,27.63
2018-07-19T12:51:13.813Z,27.50
2018-07-19T12:52:13.978Z,27.52
2018-07-19T12:53:14.141Z,27.70
2018-07-19T12:54:14.316Z,27.80
2018-07-19T12:55:14.483Z,27.85
2018-07-19T12:56:14.634Z,27.68
2018-07-19T12:57:14.797Z,27.66
2018-07-19T12:58:14.954Z,27.70